createdAt,value
2018-12-12T00:00:30.647Z,46.37
2018-12-12T00:03:00.309Z,46.13
2018-12-12T00:05:29.981Z,45.54
2018-12-12T00:07:59.671Z,46.03
2018-12-12T00:10:29.385Z,46.16
2018-12-12T00:12:59.088Z,46.09
2018-12-12T00:15:28.937Z,46.11
2018-12-12T00:17:59.049Z,46.11
2018-12-12T00:20:28.761Z,46.07
2018-12-12T00:22:58.422Z,46.16
2018-12-12T00:25:28.104Z,46.49
2018-12-12T00:27:57.736Z,46.12
2018-12-12T00:30:27.443Z,46.06
2018-12-12T00:32:57.137Z,45.96
2018-12-12T00:35:26.761Z,45.78
2018-12-12T00:37:56.468Z,45.71
2018-12-12T00:40:26.086Z,45.94
2018-12-12T00:42:55.762Z,45.67
2018-12-12T00:45:25.417Z,45.58
2018-12-12T00:47:55.049Z,45.85
2018-12-12T00:50:24.733Z,45.60
2018-12-12T00:52:54.377Z,44.99
2018-12-12T00:55:24.084Z,45.51
2018-12-12T00:57:53.914Z,45.55
2018-12-12T01:00:23.577Z,45.50
2018-12-12T01:02:53.211Z,45.26
2018-12-12T01:05:22.896Z,44.95
2018-12-12T01:07:52.581Z,44.80
2018-12-12T01:10:22.581Z,44.96
2018-12-12T01:12:52.392Z,44.81
2018-12-12T01:15:22.069Z,44.17
2018-12-12T01:17:51.764Z,44.26
2018-12-12T01:20:21.395Z,44.08
2018-12-12T01:22:51.058Z,44.01
2018-12-12T01:25:20.717Z,44.02
2018-12-12T01:27:50.453Z,43.93
2018-12-12T01:30:20.101Z,44.06
2018-12-12T01:32:49.800Z,43.62
2018-12-12T01:35:19.455Z,44.03
2018-12-12T01:37:49.137Z,43.96
2018-12-12T01:40:18.800Z,44.16
2018-12-12T01:42:48.469Z,44.18
2018-12-12T01:45:18.132Z,44.25
2018-12-12T01:47:47.823Z,43.64
2018-12-12T01:50:17.476Z,43.76
2018-12-12T01:52:47.213Z,43.46
2018-12-12T01:55:16.869Z,43.40
2018-12-12T01:57:46.516Z,43.34
2018-12-12T02:00:17.569Z,43.45
2018-12-12T02:02:47.200Z,43.77
2018-12-12T02:05:16.869Z,43.71
2018-12-12T02:07:47.080Z,43.70
2018-12-12T02:10:16.924Z,43.38
2018-12-12T02:12:56.245Z,43.23
2018-12-12T02:15:25.880Z,43.21
2018-12-12T02:17:55.564Z,42.88
2018-12-12T02:20:25.234Z,42.64
2018-12-12T02:22:54.916Z,42.75
2018-12-12T02:25:24.565Z,42.10
2018-12-12T02:27:54.360Z,42.06
2018-12-12T02:30:24.025Z,42.06
2018-12-12T02:32:53.705Z,41.90
2018-12-12T02:35:23.314Z,41.85
2018-12-12T02:37:52.996Z,41.74
2018-12-12T02:40:22.651Z,41.65
2018-12-12T02:42:52.310Z,41.34
2018-12-12T02:45:21.990Z,41.77
2018-12-12T02:47:51.596Z,41.82
2018-12-12T02:50:21.384Z,41.90
2018-12-12T02:52:51.002Z,41.89
2018-12-12T02:55:25.318Z,42.48
2018-12-12T02:57:54.995Z,42.53
2018-12-12T03:00:24.743Z,42.63
2018-12-12T03:02:54.348Z,42.99
2018-12-12T03:05:24.069Z,43.00
2018-12-12T03:07:53.676Z,43.33
2018-12-12T03:10:23.360Z,43.68
2018-12-12T03:12:53.016Z,43.87
2018-12-12T03:15:22.709Z,44.13
2018-12-12T03:17:52.333Z,44.64
2018-12-12T03:20:22.013Z,44.99
2018-12-12T03:22:51.638Z,44.16
2018-12-12T03:25:21.322Z,44.33
2018-12-12T03:27:50.965Z,44.09
2018-12-12T03:30:20.639Z,44.37
2018-12-12T03:32:50.322Z,44.06
2018-12-12T03:35:20.097Z,44.48
2018-12-12T03:37:49.837Z,44.49
2018-12-12T03:40:19.848Z,45.00
2018-12-12T03:42:49.932Z,45.47
2018-12-12T03:45:19.576Z,45.67
2018-12-12T03:47:49.270Z,45.88
2018-12-12T03:50:18.930Z,46.14
2018-12-12T03:52:48.608Z,45.59
2018-12-12T03:55:18.246Z,45.48
2018-12-12T03:57:47.956Z,45.68
2018-12-12T04:00:17.641Z,45.86
2018-12-12T04:02:47.356Z,45.55
2018-12-12T04:05:17.036Z,45.40
2018-12-12T04:07:46.746Z,45.40
2018-12-12T04:10:16.396Z,45.11
2018-12-12T04:12:46.141Z,45.59
2018-12-12T04:15:15.838Z,44.51
2018-12-12T04:17:45.464Z,44.83
2018-12-12T04:20:15.168Z,44.93
2018-12-12T04:22:44.834Z,44.49
2018-12-12T04:25:14.488Z,44.15
2018-12-12T04:27:44.177Z,44.39
2018-12-12T04:30:13.842Z,44.05
2018-12-12T04:32:43.547Z,44.16
2018-12-12T04:35:13.216Z,44.42
2018-12-12T04:37:42.902Z,44.14
2018-12-12T04:40:12.593Z,44.06
2018-12-12T04:42:42.269Z,44.24
2018-12-12T04:45:11.897Z,44.04
2018-12-12T04:47:41.571Z,43.54
2018-12-12T04:50:11.246Z,43.37
2018-12-12T04:52:40.898Z,43.74
2018-12-12T04:55:10.651Z,43.65
2018-12-12T04:57:40.332Z,43.74
2018-12-12T05:00:10.064Z,43.42
2018-12-12T05:02:40.224Z,43.80
2018-12-12T05:05:09.878Z,44.22
2018-12-12T05:07:39.537Z,44.31
2018-12-12T05:10:09.209Z,43.94
2018-12-12T05:12:38.895Z,44.03
2018-12-12T05:15:08.617Z,44.35
2018-12-12T05:17:38.617Z,44.29
2018-12-12T05:20:08.344Z,44.74
2018-12-12T05:22:38.048Z,44.50
2018-12-12T05:25:07.768Z,45.15
2018-12-12T05:27:37.425Z,45.31
2018-12-12T05:30:07.320Z,45.26
2018-12-12T05:32:37.002Z,45.40
2018-12-12T05:35:06.761Z,45.55
2018-12-12T05:37:36.467Z,45.69
2018-12-12T05:40:06.997Z,45.51
2018-12-12T05:42:36.699Z,45.77
2018-12-12T05:45:07.036Z,45.56
2018-12-12T05:47:36.674Z,45.31
2018-12-12T05:50:06.530Z,45.35
2018-12-12T05:52:36.198Z,45.60
2018-12-12T05:55:06.431Z,45.60
2018-12-12T05:57:36.157Z,45.30
2018-12-12T06:00:06.600Z,45.95
2018-12-12T06:02:36.353Z,46.04
2018-12-12T06:05:06.185Z,45.92
2018-12-12T06:07:35.920Z,45.43
2018-12-12T06:10:06.816Z,45.50
2018-12-12T06:12:36.585Z,45.52
2018-12-12T06:15:07.827Z,45.69
2018-12-12T06:17:38.004Z,45.51
2018-12-12T06:20:14.120Z,45.58
2018-12-12T06:22:44.007Z,46.04
2018-12-12T06:25:16.197Z,45.78
2018-12-12T06:27:45.916Z,45.99
2018-12-12T06:30:16.556Z,45.91
2018-12-12T06:32:50.081Z,45.57
2018-12-12T06:35:19.804Z,45.72
2018-12-12T06:37:49.513Z,45.76
2018-12-12T06:40:19.251Z,45.85
2018-12-12T06:42:48.915Z,46.25
2018-12-12T06:45:18.608Z,46.03
2018-12-12T06:47:48.303Z,46.49
2018-12-12T06:50:17.957Z,46.24
2018-12-12T06:52:47.657Z,46.68
2018-12-12T06:55:17.817Z,46.52
2018-12-12T06:57:47.552Z,46.21
2018-12-12T07:00:17.289Z,46.35
2018-12-12T07:02:46.938Z,45.94
2018-12-12T07:05:16.645Z,46.21
2018-12-12T07:07:46.457Z,46.06
2018-12-12T07:10:16.154Z,46.35
2018-12-12T07:12:45.830Z,46.01
2018-12-12T07:15:15.567Z,45.98
2018-12-12T07:17:45.301Z,45.78
2018-12-12T07:20:15.005Z,46.56
2018-12-12T07:22:44.730Z,45.72
2018-12-12T07:25:14.406Z,46.20
2018-12-12T07:27:44.118Z,45.63
2018-12-12T07:30:13.857Z,45.38
2018-12-12T07:32:43.510Z,45.46
2018-12-12T07:35:13.259Z,45.11
2018-12-12T07:37:43.016Z,44.99
2018-12-12T07:40:12.772Z,44.76
2018-12-12T07:42:42.525Z,44.77
2018-12-12T07:45:12.458Z,44.81
2018-12-12T07:47:42.138Z,44.56
2018-12-12T07:50:11.854Z,44.54
2018-12-12T07:52:41.653Z,44.38
2018-12-12T07:55:11.309Z,44.55
2018-12-12T07:57:41.057Z,43.66
2018-12-12T08:00:11.056Z,44.10
2018-12-12T08:02:40.720Z,44.16
2018-12-12T08:05:10.529Z,43.94
2018-12-12T08:07:40.223Z,43.74
2018-12-12T08:10:09.981Z,43.61
2018-12-12T08:12:39.849Z,44.09
2018-12-12T08:15:09.620Z,44.47
2018-12-12T08:17:39.390Z,43.34
2018-12-12T08:20:09.150Z,43.88
2018-12-12T08:22:38.830Z,43.83
2018-12-12T08:25:08.721Z,43.45
2018-12-12T08:30:14.633Z,43.94
2018-12-12T08:32:44.349Z,43.95
2018-12-12T08:35:14.099Z,45.02
2018-12-12T08:37:43.866Z,44.67
2018-12-12T08:40:13.649Z,44.32
2018-12-12T08:42:43.324Z,43.98
2018-12-12T08:45:13.068Z,44.87
2018-12-12T08:47:42.760Z,43.84
2018-12-12T08:50:12.530Z,43.93
2018-12-12T08:52:42.293Z,43.29
2018-12-12T08:55:17.468Z,43.18
2018-12-12T08:57:43.792Z,42.78
2018-12-12T09:00:13.561Z,42.80
2018-12-12T09:02:43.270Z,42.69
2018-12-12T09:05:13.006Z,42.94
2018-12-12T09:07:42.724Z,42.69
2018-12-12T09:10:12.429Z,42.41
2018-12-12T09:12:42.164Z,43.36
2018-12-12T09:15:11.951Z,42.83
2018-12-12T09:17:41.710Z,42.89
2018-12-12T09:20:11.417Z,42.09
2018-12-12T09:22:41.125Z,42.66
2018-12-12T09:25:10.803Z,42.44
2018-12-12T09:27:40.513Z,42.94
2018-12-12T09:30:10.255Z,42.24
2018-12-12T09:32:40.070Z,42.68
2018-12-12T09:35:09.918Z,42.30
2018-12-12T09:37:39.597Z,41.79
2018-12-12T09:40:09.328Z,41.45
2018-12-12T09:42:39.001Z,41.74
2018-12-12T09:45:08.803Z,41.09
2018-12-12T09:47:38.872Z,41.55
2018-12-12T09:50:08.538Z,41.41
2018-12-12T09:52:38.274Z,42.00
2018-12-12T09:55:08.037Z,40.89
2018-12-12T09:57:37.695Z,40.91
2018-12-12T10:02:44.555Z,41.04
2018-12-12T10:05:14.289Z,39.92
2018-12-12T10:07:44.060Z,40.05
2018-12-12T10:10:16.106Z,40.02
2018-12-12T10:12:45.844Z,40.63
2018-12-12T10:15:15.619Z,39.62
2018-12-12T10:17:46.110Z,40.68
2018-12-12T10:20:15.835Z,40.68
2018-12-12T10:22:45.512Z,39.78
2018-12-12T10:25:15.222Z,40.23
2018-12-12T10:27:44.963Z,39.85
2018-12-12T10:30:14.701Z,40.45
2018-12-12T10:32:44.835Z,40.46
2018-12-12T10:35:14.671Z,40.03
2018-12-12T10:37:44.433Z,39.86
2018-12-12T10:40:14.314Z,40.09
2018-12-12T10:42:44.055Z,39.71
2018-12-12T10:45:13.819Z,38.76
2018-12-12T10:47:43.473Z,40.17
2018-12-12T10:50:13.209Z,39.22
2018-12-12T10:52:42.941Z,39.53
2018-12-12T10:55:12.740Z,39.04
2018-12-12T10:57:42.488Z,39.84
2018-12-12T11:00:12.792Z,39.46
2018-12-12T11:02:50.824Z,39.59
2018-12-12T11:05:20.719Z,39.80
2018-12-12T11:07:50.549Z,39.49
2018-12-12T11:10:20.221Z,39.26
2018-12-12T11:12:50.032Z,40.25
2018-12-12T11:15:19.782Z,40.16
2018-12-12T11:17:49.472Z,40.57
2018-12-12T11:20:19.144Z,40.31
2018-12-12T11:22:48.825Z,40.54
2018-12-12T11:25:18.568Z,40.62
2018-12-12T11:27:48.200Z,40.54
2018-12-12T11:30:17.970Z,40.87
2018-12-12T11:32:47.826Z,40.16
2018-12-12T11:35:17.557Z,40.68
2018-12-12T11:37:47.252Z,40.23
2018-12-12T11:40:16.973Z,40.63
2018-12-12T11:42:46.693Z,40.16
2018-12-12T11:45:16.398Z,39.90
2018-12-12T11:47:46.297Z,39.81
2018-12-12T11:50:16.003Z,39.77
2018-12-12T11:52:45.776Z,40.48
2018-12-12T11:55:15.511Z,39.99
2018-12-12T11:57:45.512Z,39.85
2018-12-12T12:02:53.396Z,39.21
2018-12-12T12:05:23.087Z,39.99
2018-12-12T12:07:52.761Z,39.72
2018-12-12T12:10:22.422Z,40.08
2018-12-12T12:12:52.177Z,40.11
2018-12-12T12:15:21.899Z,40.00
2018-12-12T12:17:51.594Z,39.08
2018-12-12T12:20:21.384Z,38.81
2018-12-12T12:22:51.033Z,37.41
2018-12-12T12:25:20.857Z,37.31
2018-12-12T12:27:50.545Z,37.41
2018-12-12T12:30:20.307Z,37.55
2018-12-12T12:32:49.977Z,37.99
2018-12-12T12:35:19.652Z,37.76
2018-12-12T12:37:49.350Z,37.22
2018-12-12T12:40:19.072Z,37.31
2018-12-12T12:42:48.805Z,36.47
2018-12-12T12:45:18.509Z,36.70
2018-12-12T12:47:48.334Z,37.50
2018-12-12T12:50:18.045Z,37.08
2018-12-12T12:52:47.738Z,37.73
2018-12-12T12:55:17.377Z,37.24
2018-12-12T12:57:47.110Z,37.64
2018-12-12T13:00:16.861Z,37.79
2018-12-12T13:02:46.541Z,37.32
2018-12-12T13:05:16.377Z,38.16
2018-12-12T13:07:47.094Z,38.28
2018-12-12T13:10:16.794Z,37.93
2018-12-12T13:12:47.061Z,38.77
2018-12-12T13:15:16.993Z,37.86
2018-12-12T13:17:46.692Z,38.36
2018-12-12T13:20:16.361Z,38.33
2018-12-12T13:22:46.069Z,38.93
2018-12-12T13:25:15.782Z,38.91
2018-12-12T13:27:45.492Z,38.52
2018-12-12T13:30:15.240Z,39.05
2018-12-12T13:32:44.870Z,39.01
2018-12-12T13:37:52.480Z,39.31
2018-12-12T13:40:22.249Z,38.92
2018-12-12T13:42:52.018Z,39.11
2018-12-12T13:45:21.789Z,38.89
2018-12-12T13:47:51.614Z,39.32
2018-12-12T13:50:21.405Z,38.89
2018-12-12T13:52:51.169Z,39.41
2018-12-12T13:55:20.871Z,38.50
2018-12-12T13:57:50.565Z,37.98
2018-12-12T14:00:20.269Z,38.24
2018-12-12T14:02:50.003Z,38.85
2018-12-12T14:05:19.697Z,38.70
2018-12-12T14:07:49.348Z,38.34
2018-12-12T14:10:19.081Z,38.62
2018-12-12T14:12:48.792Z,37.86
2018-12-12T14:15:18.566Z,38.24
2018-12-12T14:17:48.249Z,38.07
2018-12-12T14:20:17.905Z,38.13
2018-12-12T14:22:47.606Z,38.44
2018-12-12T14:25:17.301Z,37.87
2018-12-12T14:27:47.011Z,38.79
2018-12-12T14:30:16.837Z,38.83
2018-12-12T14:32:46.561Z,38.59
2018-12-12T14:35:16.243Z,38.94
2018-12-12T14:37:45.954Z,39.20
2018-12-12T14:40:15.677Z,38.94
2018-12-12T14:42:45.339Z,39.07
2018-12-12T14:45:15.048Z,38.54
2018-12-12T14:47:44.765Z,39.00
2018-12-12T14:50:16.701Z,39.85
2018-12-12T14:52:46.332Z,39.14
2018-12-12T14:55:16.041Z,39.28
2018-12-12T14:57:45.692Z,39.15
2018-12-12T15:00:15.848Z,39.76
2018-12-12T15:02:45.538Z,40.01
2018-12-12T15:05:15.289Z,39.14
2018-12-12T15:07:45.036Z,39.29
2018-12-12T15:10:14.765Z,39.52
2018-12-12T15:12:44.516Z,40.16
2018-12-12T15:15:14.284Z,40.01
2018-12-12T15:17:44.006Z,40.19
2018-12-12T15:20:13.793Z,40.34
2018-12-12T15:22:43.527Z,39.93
2018-12-12T15:25:13.279Z,40.86
2018-12-12T15:27:43.045Z,40.68
2018-12-12T15:30:12.765Z,40.81
2018-12-12T15:32:42.447Z,40.77
2018-12-12T15:35:12.168Z,40.87
2018-12-12T15:37:41.838Z,41.32
2018-12-12T15:40:11.588Z,41.24
2018-12-12T15:42:41.314Z,41.40
2018-12-12T15:45:11.105Z,41.54
2018-12-12T15:47:40.888Z,41.65
2018-12-12T15:50:10.554Z,41.68
2018-12-12T15:52:40.245Z,41.42
2018-12-12T15:55:09.964Z,41.38
2018-12-12T15:57:39.686Z,41.60
2018-12-12T16:00:09.935Z,41.35
2018-12-12T16:02:39.829Z,41.50
2018-12-12T16:05:09.499Z,41.34
2018-12-12T16:07:39.200Z,41.51
2018-12-12T16:10:08.929Z,41.78
2018-12-12T16:12:38.620Z,41.61
2018-12-12T16:15:08.493Z,41.68
2018-12-12T16:17:38.185Z,41.88
2018-12-12T16:20:08.390Z,42.11
2018-12-12T16:22:38.080Z,42.09
2018-12-12T16:25:08.152Z,41.93
2018-12-12T16:27:37.817Z,42.17
2018-12-12T16:30:08.239Z,42.43
2018-12-12T16:32:37.894Z,42.43
2018-12-12T16:35:07.791Z,42.57
2018-12-12T16:37:37.408Z,42.61
2018-12-12T16:40:07.422Z,42.26
2018-12-12T16:42:37.101Z,42.60
2018-12-12T16:45:07.144Z,42.71
2018-12-12T16:47:36.852Z,42.66
2018-12-12T16:50:07.826Z,42.78
2018-12-12T16:52:37.477Z,42.84
2018-12-12T16:55:07.197Z,42.86
2018-12-12T16:57:36.868Z,42.75
2018-12-12T17:00:07.999Z,42.83
2018-12-12T17:02:37.672Z,42.99
2018-12-12T17:05:07.520Z,43.05
2018-12-12T17:07:37.153Z,42.89
2018-12-12T17:10:10.754Z,42.99
2018-12-12T17:12:39.242Z,43.28
2018-12-12T17:15:09.121Z,43.08
2018-12-12T17:17:38.823Z,43.06
2018-12-12T17:20:08.832Z,42.90
2018-12-12T17:22:38.507Z,43.17
2018-12-12T17:25:08.169Z,43.14
2018-12-12T17:27:37.849Z,43.31
2018-12-12T17:30:08.524Z,43.33
2018-12-12T17:32:38.237Z,43.21
2018-12-12T17:35:08.968Z,43.17
2018-12-12T17:37:38.844Z,42.99
2018-12-12T17:40:08.747Z,43.27
2018-12-12T17:42:38.381Z,43.52
2018-12-12T17:45:08.305Z,43.60
2018-12-12T17:47:37.941Z,43.84
2018-12-12T17:50:07.649Z,43.88
2018-12-12T17:52:37.344Z,44.11
2018-12-12T17:55:07.113Z,44.03
2018-12-12T17:57:36.809Z,44.11
2018-12-12T18:00:07.521Z,44.10
2018-12-12T18:02:37.212Z,43.91
2018-12-12T18:05:07.064Z,43.96
2018-12-12T18:07:36.767Z,43.68
2018-12-12T18:10:06.753Z,43.89
2018-12-12T18:12:36.470Z,43.42
2018-12-12T18:15:06.443Z,43.30
2018-12-12T18:17:36.209Z,43.23
2018-12-12T18:20:06.110Z,43.69
2018-12-12T18:22:35.842Z,43.36
2018-12-12T18:25:05.541Z,43.58
2018-12-12T18:27:35.321Z,43.18
2018-12-12T18:30:05.841Z,43.61
2018-12-12T18:32:35.533Z,43.38
2018-12-12T18:35:05.452Z,43.42
2018-12-12T18:37:35.133Z,43.30
2018-12-12T18:40:04.928Z,43.58
2018-12-12T18:42:34.593Z,43.60
2018-12-12T18:45:04.532Z,43.46
2018-12-12T18:47:34.237Z,43.43
2018-12-12T18:50:04.181Z,43.44
2018-12-12T18:52:33.877Z,43.33
2018-12-12T18:55:03.568Z,43.31
2018-12-12T18:57:33.295Z,43.16
2018-12-12T19:00:03.017Z,43.47
2018-12-12T19:02:32.693Z,43.61
2018-12-12T19:05:02.433Z,43.72
2018-12-12T19:07:32.133Z,43.64
2018-12-12T19:10:01.801Z,43.58
2018-12-12T19:12:31.573Z,43.64
2018-12-12T19:15:04.561Z,43.64
2018-12-12T19:17:34.285Z,43.98
2018-12-12T19:20:04.177Z,44.20
2018-12-12T19:22:33.862Z,44.33
2018-12-12T19:25:03.769Z,44.28
2018-12-12T19:27:33.457Z,44.68
2018-12-12T19:30:03.126Z,44.74
2018-12-12T19:32:32.865Z,44.78
2018-12-12T19:35:02.533Z,44.90
2018-12-12T19:37:32.230Z,44.75
2018-12-12T19:40:01.932Z,44.69
2018-12-12T19:42:31.585Z,44.72
2018-12-12T19:45:01.351Z,44.70
2018-12-12T19:47:31.014Z,44.77
2018-12-12T19:50:00.714Z,44.63
2018-12-12T19:52:30.525Z,44.95
2018-12-12T19:55:00.240Z,44.89
2018-12-12T19:57:29.909Z,45.01
2018-12-12T19:59:59.628Z,45.03
2018-12-12T20:02:29.333Z,44.98
2018-12-12T20:04:59.077Z,45.07
2018-12-12T20:07:28.813Z,45.09
2018-12-12T20:09:58.482Z,45.36
2018-12-12T20:12:28.356Z,45.29
2018-12-12T20:14:58.026Z,45.29
2018-12-12T20:17:27.774Z,45.38
2018-12-12T20:19:57.428Z,45.89
2018-12-12T20:22:27.189Z,45.61
2018-12-12T20:24:56.836Z,45.62
2018-12-12T20:27:26.553Z,45.84
2018-12-12T20:29:56.203Z,45.90
2018-12-12T20:32:25.902Z,46.14
2018-12-12T20:34:55.549Z,46.49
2018-12-12T20:37:25.275Z,46.49
2018-12-12T20:39:55.109Z,46.73
2018-12-12T20:42:24.792Z,46.97
2018-12-12T20:44:54.634Z,46.80
2018-12-12T20:47:24.350Z,46.96
2018-12-12T20:49:54.035Z,47.06
2018-12-12T20:52:23.666Z,46.83
2018-12-12T20:54:53.365Z,46.67
2018-12-12T20:57:23.016Z,46.93
2018-12-12T20:59:52.705Z,46.81
2018-12-12T21:02:22.356Z,47.12
2018-12-12T21:04:52.079Z,47.18
2018-12-12T21:07:21.769Z,47.49
2018-12-12T21:09:51.502Z,47.47
2018-12-12T21:12:21.193Z,47.44
2018-12-12T21:14:50.901Z,47.66
2018-12-12T21:17:20.564Z,47.91
2018-12-12T21:19:50.338Z,48.08
2018-12-12T21:22:20.029Z,48.07
2018-12-12T21:24:49.700Z,48.11
2018-12-12T21:27:19.423Z,48.20
2018-12-12T21:29:49.098Z,48.19
2018-12-12T21:32:18.839Z,48.12
2018-12-12T21:34:48.561Z,48.13
2018-12-12T21:37:18.247Z,47.96
2018-12-12T21:39:47.910Z,47.76
2018-12-12T21:42:17.617Z,47.49
2018-12-12T21:44:47.325Z,47.61
2018-12-12T21:47:17.042Z,48.40
2018-12-12T21:49:46.748Z,48.06
2018-12-12T21:52:16.477Z,48.21
2018-12-12T21:54:46.140Z,48.31
2018-12-12T21:57:15.890Z,48.00
2018-12-12T21:59:45.540Z,47.46
2018-12-12T22:02:15.252Z,47.72
2018-12-12T22:04:44.941Z,47.72
2018-12-12T22:07:14.922Z,47.62
2018-12-12T22:09:44.572Z,47.43
2018-12-12T22:12:14.285Z,47.27
2018-12-12T22:14:43.981Z,46.89
2018-12-12T22:17:13.645Z,47.09
2018-12-12T22:19:43.352Z,47.35
2018-12-12T22:22:13.048Z,47.46
2018-12-12T22:24:42.745Z,47.49
2018-12-12T22:27:12.449Z,47.59
2018-12-12T22:29:42.148Z,47.49
2018-12-12T22:32:11.812Z,47.67
2018-12-12T22:34:41.549Z,47.76
2018-12-12T22:37:11.182Z,48.03
2018-12-12T22:39:40.953Z,48.18
2018-12-12T22:42:10.640Z,48.21
2018-12-12T22:44:40.312Z,48.38
2018-12-12T22:47:09.991Z,48.63
2018-12-12T22:49:39.701Z,48.90
2018-12-12T22:52:09.376Z,49.02
2018-12-12T22:54:39.100Z,48.93
2018-12-12T22:57:08.756Z,49.12
2018-12-12T22:59:38.474Z,49.36
2018-12-12T23:02:08.165Z,49.30
2018-12-12T23:04:37.871Z,49.09
2018-12-12T23:07:07.547Z,49.42
2018-12-12T23:09:37.256Z,49.18
2018-12-12T23:12:06.956Z,49.39
2018-12-12T23:14:36.608Z,50.08
2018-12-12T23:17:06.308Z,50.04
2018-12-12T23:19:35.940Z,50.26
2018-12-12T23:22:05.653Z,49.49
2018-12-12T23:24:35.317Z,50.02
2018-12-12T23:27:05.032Z,50.03
2018-12-12T23:29:34.752Z,49.78
2018-12-12T23:32:04.468Z,50.01
2018-12-12T23:34:34.148Z,50.47
2018-12-12T23:37:03.827Z,50.47
2018-12-12T23:39:33.561Z,50.69
2018-12-12T23:42:03.298Z,50.29
2018-12-12T23:44:32.950Z,50.16
2018-12-12T23:47:02.686Z,50.58
2018-12-12T23:49:32.322Z,50.94
2018-12-12T23:52:02.061Z,50.68
2018-12-12T23:54:31.761Z,50.40
2018-12-12T23:57:01.431Z,51.63
2018-12-12T23:59:31.119Z,51.85
